RYR17ZZ EPKK-LDDU
Flight info
| Callsign | RYR17ZZ |
|---|---|
| Flight time | 1h 25m |
| Altitude | 38000 |
| Route | BABKO DCT PATAK DCT BAREB DCT NETKO |
| Aircraft | B738/M-SDE2E3FGHIRWXY/LB1 |
Departure
| Time | 2026-04-30 11:57 |
|---|---|
| Airport | Kraków John Paul II International Airport (EPKK) |
Arrival
| Time | 2026-04-30 13:23 |
|---|---|
| Airport | Dubrovnik Ruđer Bošković Airport (LDDU) |
| Time | Latitude | Longitude | Altitude | Speed | Heading |
|---|---|---|---|---|---|
| 2026-04-30 11:43 | 50.07505 | 19.80271 | 799 ft | 0 kts | 168° |
| 2026-04-30 11:53 | 50.07493 | 19.80275 | 799 ft | 4 kts | 168° |
| 2026-04-30 11:53 | 50.07452 | 19.80299 | 799 ft | 8 kts | 135° |
| 2026-04-30 11:53 | 50.07462 | 19.80371 | 799 ft | 8 kts | 33° |
| 2026-04-30 11:53 | 50.07512 | 19.80397 | 799 ft | 7 kts | 17° |
| 2026-04-30 11:54 | 50.07561 | 19.80419 | 799 ft | 7 kts | 14° |
| 2026-04-30 11:54 | 50.07609 | 19.80413 | 799 ft | 7 kts | 347° |
| 2026-04-30 11:54 | 50.07663 | 19.80393 | 799 ft | 9 kts | 347° |
| 2026-04-30 11:54 | 50.07735 | 19.80370 | 799 ft | 12 kts | 349° |
| 2026-04-30 11:55 | 50.07814 | 19.80348 | 799 ft | 8 kts | 349° |
| 2026-04-30 11:55 | 50.07849 | 19.80337 | 799 ft | 4 kts | 344° |
| 2026-04-30 11:55 | 50.07886 | 19.80321 | 799 ft | 8 kts | 344° |
| 2026-04-30 11:55 | 50.07957 | 19.80295 | 799 ft | 13 kts | 348° |
| 2026-04-30 11:56 | 50.08014 | 19.80233 | 799 ft | 9 kts | 281° |
| 2026-04-30 11:56 | 50.08012 | 19.80203 | 799 ft | 0 kts | 254° |
| 2026-04-30 11:56 | 50.08011 | 19.80198 | 799 ft | 3 kts | 254° |
| 2026-04-30 11:56 | 50.07962 | 19.79843 | 799 ft | 70 kts | 257° |
| 2026-04-30 11:57 | 50.07810 | 19.78758 | 801 ft | 133 kts | 258° |
| 2026-04-30 11:57 | 50.07588 | 19.77192 | 1177 ft | 150 kts | 259° |
| 2026-04-30 11:57 | 50.07347 | 19.75567 | 1819 ft | 161 kts | 259° |
| 2026-04-30 11:57 | 50.07057 | 19.73788 | 2289 ft | 177 kts | 258° |
| 2026-04-30 11:58 | 50.06767 | 19.71897 | 2954 ft | 180 kts | 262° |
| 2026-04-30 11:58 | 50.06509 | 19.69972 | 3565 ft | 189 kts | 261° |
| 2026-04-30 11:58 | 50.06228 | 19.67874 | 3989 ft | 204 kts | 260° |
| 2026-04-30 11:58 | 50.05560 | 19.65906 | 4477 ft | 215 kts | 225° |
| 2026-04-30 11:59 | 50.04210 | 19.64735 | 4816 ft | 236 kts | 193° |
| 2026-04-30 11:59 | 50.02490 | 19.64769 | 5093 ft | 260 kts | 169° |
| 2026-04-30 11:59 | 50.00695 | 19.65364 | 5615 ft | 272 kts | 167° |
| 2026-04-30 11:59 | 49.98839 | 19.66034 | 6352 ft | 276 kts | 166° |
| 2026-04-30 12:00 | 49.96955 | 19.66712 | 7139 ft | 279 kts | 166° |
| 2026-04-30 12:00 | 49.95045 | 19.67380 | 7842 ft | 284 kts | 166° |
| 2026-04-30 12:00 | 49.93102 | 19.68046 | 8589 ft | 288 kts | 166° |
| 2026-04-30 12:00 | 49.91124 | 19.68716 | 9325 ft | 294 kts | 165° |
| 2026-04-30 12:01 | 49.89109 | 19.69370 | 10105 ft | 299 kts | 170° |
| 2026-04-30 12:01 | 49.87015 | 19.69095 | 10755 ft | 311 kts | 198° |
| 2026-04-30 12:01 | 49.84992 | 19.67591 | 10985 ft | 335 kts | 209° |
| 2026-04-30 12:01 | 49.82920 | 19.65772 | 11475 ft | 347 kts | 210° |
| 2026-04-30 12:02 | 49.80834 | 19.63906 | 12131 ft | 354 kts | 210° |
| 2026-04-30 12:02 | 49.78684 | 19.61995 | 12853 ft | 359 kts | 210° |
| 2026-04-30 12:02 | 49.76498 | 19.60074 | 13625 ft | 364 kts | 210° |
| 2026-04-30 12:02 | 49.74270 | 19.58136 | 14354 ft | 369 kts | 209° |
| 2026-04-30 12:03 | 49.72007 | 19.56178 | 15063 ft | 375 kts | 209° |
| 2026-04-30 12:03 | 49.67384 | 19.52202 | 16529 ft | 385 kts | 209° |
| 2026-04-30 12:03 | 49.65041 | 19.50194 | 17338 ft | 387 kts | 209° |
| 2026-04-30 12:04 | 49.62674 | 19.48166 | 18029 ft | 393 kts | 208° |
| 2026-04-30 12:04 | 49.60142 | 19.46490 | 18665 ft | 398 kts | 191° |
| 2026-04-30 12:04 | 49.57404 | 19.45817 | 19323 ft | 400 kts | 186° |
| 2026-04-30 12:04 | 49.54627 | 19.45238 | 19973 ft | 403 kts | 185° |
| 2026-04-30 12:05 | 49.51870 | 19.44666 | 20591 ft | 407 kts | 186° |
| 2026-04-30 12:05 | 49.49047 | 19.44069 | 21214 ft | 411 kts | 186° |
| 2026-04-30 12:05 | 49.46197 | 19.43450 | 21823 ft | 415 kts | 186° |
| 2026-04-30 12:05 | 49.43324 | 19.42814 | 22421 ft | 419 kts | 186° |
| 2026-04-30 12:06 | 49.40419 | 19.42159 | 23014 ft | 423 kts | 186° |
| 2026-04-30 12:06 | 49.37493 | 19.41491 | 23600 ft | 427 kts | 186° |
| 2026-04-30 12:06 | 49.34535 | 19.40822 | 24134 ft | 431 kts | 186° |
| 2026-04-30 12:06 | 49.31550 | 19.40149 | 24605 ft | 435 kts | 186° |
| 2026-04-30 12:07 | 49.28541 | 19.39469 | 25092 ft | 438 kts | 186° |
| 2026-04-30 12:07 | 49.25521 | 19.38788 | 25569 ft | 441 kts | 186° |
| 2026-04-30 12:07 | 49.22476 | 19.38100 | 26040 ft | 444 kts | 186° |
| 2026-04-30 12:07 | 49.19449 | 19.37417 | 26513 ft | 446 kts | 186° |
| 2026-04-30 12:08 | 49.16370 | 19.36724 | 26975 ft | 449 kts | 186° |
| 2026-04-30 12:08 | 49.13261 | 19.36025 | 27490 ft | 451 kts | 186° |
| 2026-04-30 12:08 | 49.10156 | 19.35327 | 27970 ft | 453 kts | 186° |
| 2026-04-30 12:08 | 49.07022 | 19.34623 | 28389 ft | 456 kts | 186° |
| 2026-04-30 12:09 | 49.03876 | 19.33917 | 28777 ft | 459 kts | 186° |
| 2026-04-30 12:09 | 49.00698 | 19.33208 | 29159 ft | 462 kts | 186° |
| 2026-04-30 12:09 | 48.97541 | 19.32503 | 29595 ft | 464 kts | 186° |
| 2026-04-30 12:09 | 48.94344 | 19.31788 | 29986 ft | 466 kts | 186° |
| 2026-04-30 12:10 | 48.91121 | 19.31069 | 30369 ft | 469 kts | 186° |
| 2026-04-30 12:10 | 48.87882 | 19.30347 | 30674 ft | 472 kts | 186° |
| 2026-04-30 12:10 | 48.84629 | 19.29623 | 30954 ft | 474 kts | 186° |
| 2026-04-30 12:10 | 48.81349 | 19.28895 | 31257 ft | 476 kts | 186° |
| 2026-04-30 12:11 | 48.78067 | 19.28168 | 31559 ft | 477 kts | 186° |
| 2026-04-30 12:11 | 48.74771 | 19.27437 | 31894 ft | 478 kts | 186° |
| 2026-04-30 12:11 | 48.71520 | 19.26717 | 32263 ft | 478 kts | 187° |
| 2026-04-30 12:11 | 48.68231 | 19.25990 | 32669 ft | 477 kts | 187° |
| 2026-04-30 12:12 | 48.64947 | 19.25265 | 33057 ft | 476 kts | 187° |
| 2026-04-30 12:12 | 48.61669 | 19.24543 | 33412 ft | 476 kts | 187° |
| 2026-04-30 12:12 | 48.58388 | 19.23821 | 33771 ft | 476 kts | 187° |
| 2026-04-30 12:12 | 48.55113 | 19.23102 | 34146 ft | 475 kts | 187° |
| 2026-04-30 12:13 | 48.51843 | 19.22384 | 34515 ft | 474 kts | 187° |
| 2026-04-30 12:13 | 48.48573 | 19.21667 | 34782 ft | 475 kts | 187° |
| 2026-04-30 12:13 | 48.45299 | 19.20951 | 35010 ft | 476 kts | 187° |
| 2026-04-30 12:13 | 48.42013 | 19.20233 | 35268 ft | 476 kts | 187° |
| 2026-04-30 12:14 | 48.38740 | 19.19518 | 35542 ft | 476 kts | 187° |
| 2026-04-30 12:14 | 48.35459 | 19.18803 | 35814 ft | 476 kts | 187° |
| 2026-04-30 12:14 | 48.32179 | 19.18089 | 36107 ft | 475 kts | 187° |
| 2026-04-30 12:14 | 48.28911 | 19.17378 | 36403 ft | 474 kts | 188° |
| 2026-04-30 12:15 | 48.25640 | 19.16668 | 36625 ft | 475 kts | 188° |
| 2026-04-30 12:15 | 48.22363 | 19.15957 | 36825 ft | 477 kts | 188° |
| 2026-04-30 12:15 | 48.19120 | 19.15254 | 37089 ft | 476 kts | 188° |
| 2026-04-30 12:15 | 48.15845 | 19.14545 | 37431 ft | 474 kts | 188° |
| 2026-04-30 12:16 | 48.12586 | 19.13841 | 37685 ft | 474 kts | 188° |
| 2026-04-30 12:16 | 48.09321 | 19.13136 | 37900 ft | 474 kts | 188° |
| 2026-04-30 12:16 | 48.06054 | 19.12377 | 38100 ft | 475 kts | 191° |
| 2026-04-30 12:16 | 48.02811 | 19.11429 | 38323 ft | 475 kts | 192° |
| 2026-04-30 12:17 | 47.96357 | 19.09317 | 38359 ft | 480 kts | 193° |
| 2026-04-30 12:17 | 47.89843 | 19.07155 | 38341 ft | 476 kts | 193° |
| 2026-04-30 12:18 | 47.83419 | 19.05077 | 38354 ft | 469 kts | 192° |
| 2026-04-30 12:18 | 47.77035 | 19.03046 | 38365 ft | 469 kts | 192° |
| 2026-04-30 12:19 | 47.70646 | 19.01026 | 38343 ft | 469 kts | 192° |
| 2026-04-30 12:19 | 47.64356 | 18.99042 | 38361 ft | 469 kts | 192° |
| 2026-04-30 12:20 | 47.58007 | 18.97042 | 38362 ft | 469 kts | 192° |
| 2026-04-30 12:20 | 47.51601 | 18.95028 | 38368 ft | 470 kts | 192° |
| 2026-04-30 12:21 | 47.45192 | 18.93019 | 38368 ft | 470 kts | 192° |
| 2026-04-30 12:21 | 47.38835 | 18.91031 | 38360 ft | 469 kts | 192° |
| 2026-04-30 12:22 | 47.32449 | 18.89039 | 38365 ft | 469 kts | 192° |
| 2026-04-30 12:22 | 47.26055 | 18.87049 | 38352 ft | 468 kts | 192° |
| 2026-04-30 12:23 | 47.19674 | 18.85069 | 38353 ft | 468 kts | 192° |
| 2026-04-30 12:23 | 47.13343 | 18.83108 | 38359 ft | 467 kts | 192° |
| 2026-04-30 12:24 | 47.06980 | 18.81142 | 38355 ft | 467 kts | 193° |
| 2026-04-30 12:24 | 47.00626 | 18.79184 | 38359 ft | 466 kts | 193° |
| 2026-04-30 12:25 | 46.94304 | 18.77241 | 38364 ft | 465 kts | 193° |
| 2026-04-30 12:25 | 46.87971 | 18.75299 | 38356 ft | 464 kts | 193° |
| 2026-04-30 12:26 | 46.81658 | 18.73368 | 38361 ft | 463 kts | 193° |
| 2026-04-30 12:26 | 46.75362 | 18.71446 | 38364 ft | 462 kts | 193° |
| 2026-04-30 12:27 | 46.69078 | 18.69533 | 38361 ft | 461 kts | 193° |
| 2026-04-30 12:27 | 46.62828 | 18.67635 | 38359 ft | 460 kts | 193° |
| 2026-04-30 12:28 | 46.56556 | 18.65734 | 38364 ft | 460 kts | 193° |
| 2026-04-30 12:28 | 46.50275 | 18.63835 | 38364 ft | 460 kts | 193° |
| 2026-04-30 12:29 | 46.43993 | 18.61940 | 38355 ft | 461 kts | 194° |
| 2026-04-30 12:29 | 46.38765 | 18.60366 | 38366 ft | 461 kts | 194° |
| 2026-04-30 12:30 | 46.31442 | 18.58168 | 38366 ft | 463 kts | 194° |
| 2026-04-30 12:30 | 46.25117 | 18.56273 | 38346 ft | 464 kts | 194° |
| 2026-04-30 12:31 | 46.19860 | 18.54703 | 38358 ft | 464 kts | 194° |
| 2026-04-30 12:31 | 46.12452 | 18.52494 | 38354 ft | 466 kts | 194° |
| 2026-04-30 12:32 | 46.07168 | 18.50922 | 38333 ft | 466 kts | 194° |
| 2026-04-30 12:32 | 46.00817 | 18.49037 | 38344 ft | 466 kts | 194° |
| 2026-04-30 12:33 | 45.94494 | 18.47164 | 38350 ft | 466 kts | 194° |
| 2026-04-30 12:33 | 45.88140 | 18.45287 | 38353 ft | 465 kts | 194° |
| 2026-04-30 12:34 | 45.81802 | 18.43419 | 38347 ft | 464 kts | 194° |
| 2026-04-30 12:34 | 45.75513 | 18.41569 | 38349 ft | 463 kts | 194° |
| 2026-04-30 12:35 | 45.69194 | 18.39725 | 38347 ft | 462 kts | 194° |
| 2026-04-30 12:35 | 45.62891 | 18.37898 | 38343 ft | 462 kts | 194° |
| 2026-04-30 12:36 | 45.56588 | 18.36075 | 38351 ft | 461 kts | 194° |
| 2026-04-30 12:36 | 45.50283 | 18.34253 | 38346 ft | 462 kts | 194° |
| 2026-04-30 12:37 | 45.44018 | 18.32446 | 38343 ft | 462 kts | 194° |
| 2026-04-30 12:37 | 45.37695 | 18.30627 | 38349 ft | 462 kts | 194° |
| 2026-04-30 12:38 | 45.31389 | 18.28817 | 38345 ft | 463 kts | 194° |
| 2026-04-30 12:38 | 45.25068 | 18.27006 | 38341 ft | 463 kts | 194° |
| 2026-04-30 12:39 | 45.18741 | 18.25199 | 38342 ft | 464 kts | 194° |
| 2026-04-30 12:39 | 45.12449 | 18.23405 | 38340 ft | 464 kts | 194° |
| 2026-04-30 12:40 | 45.06115 | 18.21603 | 38334 ft | 464 kts | 194° |
| 2026-04-30 12:40 | 44.99806 | 18.19813 | 38332 ft | 463 kts | 194° |
| 2026-04-30 12:41 | 44.93483 | 18.18023 | 38337 ft | 462 kts | 194° |
| 2026-04-30 12:41 | 44.87183 | 18.16243 | 38320 ft | 461 kts | 194° |
| 2026-04-30 12:42 | 44.80899 | 18.14472 | 38345 ft | 459 kts | 194° |
| 2026-04-30 12:42 | 44.74628 | 18.12707 | 38326 ft | 459 kts | 194° |
| 2026-04-30 12:43 | 44.68415 | 18.10963 | 38322 ft | 457 kts | 195° |
| 2026-04-30 12:43 | 44.65291 | 18.10088 | 38204 ft | 459 kts | 195° |
| 2026-04-30 12:43 | 44.62151 | 18.09208 | 37907 ft | 459 kts | 195° |
| 2026-04-30 12:44 | 44.59028 | 18.08335 | 37637 ft | 456 kts | 195° |
| 2026-04-30 12:44 | 44.55914 | 18.07466 | 37387 ft | 455 kts | 195° |
| 2026-04-30 12:44 | 44.52810 | 18.06601 | 37132 ft | 455 kts | 195° |
| 2026-04-30 12:44 | 44.49703 | 18.05735 | 36870 ft | 455 kts | 195° |
| 2026-04-30 12:45 | 44.46596 | 18.04869 | 36622 ft | 455 kts | 195° |
| 2026-04-30 12:45 | 44.43497 | 18.04008 | 36271 ft | 453 kts | 195° |
| 2026-04-30 12:45 | 44.40394 | 18.03146 | 35665 ft | 454 kts | 195° |
| 2026-04-30 12:45 | 44.37293 | 18.02285 | 35084 ft | 454 kts | 195° |
| 2026-04-30 12:46 | 44.34185 | 18.01423 | 34469 ft | 456 kts | 195° |
| 2026-04-30 12:46 | 44.31071 | 18.00560 | 33716 ft | 457 kts | 196° |
| 2026-04-30 12:46 | 44.28031 | 17.99720 | 33035 ft | 458 kts | 195° |
| 2026-04-30 12:46 | 44.24904 | 17.98855 | 32336 ft | 458 kts | 195° |
| 2026-04-30 12:47 | 44.21810 | 17.98001 | 31667 ft | 458 kts | 195° |
| 2026-04-30 12:47 | 44.18700 | 17.97144 | 31178 ft | 453 kts | 195° |
| 2026-04-30 12:47 | 44.15616 | 17.96297 | 30671 ft | 450 kts | 195° |
| 2026-04-30 12:47 | 44.12545 | 17.95454 | 30105 ft | 446 kts | 195° |
| 2026-04-30 12:48 | 44.09512 | 17.94622 | 29558 ft | 441 kts | 195° |
| 2026-04-30 12:48 | 44.06511 | 17.93799 | 29051 ft | 436 kts | 195° |
| 2026-04-30 12:48 | 44.03551 | 17.92988 | 28514 ft | 432 kts | 195° |
| 2026-04-30 12:48 | 44.00605 | 17.92181 | 28008 ft | 429 kts | 195° |
| 2026-04-30 12:49 | 43.97704 | 17.91386 | 27490 ft | 426 kts | 194° |
| 2026-04-30 12:49 | 43.94834 | 17.90600 | 26982 ft | 423 kts | 195° |
| 2026-04-30 12:49 | 43.91956 | 17.89814 | 26478 ft | 418 kts | 194° |
| 2026-04-30 12:49 | 43.89115 | 17.89038 | 26019 ft | 416 kts | 194° |
| 2026-04-30 12:50 | 43.86264 | 17.88259 | 25524 ft | 418 kts | 194° |
| 2026-04-30 12:50 | 43.83402 | 17.87478 | 25021 ft | 419 kts | 194° |
| 2026-04-30 12:50 | 43.80548 | 17.86700 | 24518 ft | 417 kts | 194° |
| 2026-04-30 12:50 | 43.77706 | 17.85927 | 24022 ft | 415 kts | 194° |
| 2026-04-30 12:51 | 43.74882 | 17.85142 | 23486 ft | 411 kts | 198° |
| 2026-04-30 12:51 | 43.72097 | 17.84286 | 22937 ft | 409 kts | 194° |
| 2026-04-30 12:51 | 43.69304 | 17.83642 | 22447 ft | 404 kts | 193° |
| 2026-04-30 12:51 | 43.66559 | 17.82964 | 21957 ft | 399 kts | 194° |
| 2026-04-30 12:52 | 43.63838 | 17.82233 | 21490 ft | 396 kts | 194° |
| 2026-04-30 12:52 | 43.61149 | 17.81494 | 21035 ft | 393 kts | 195° |
| 2026-04-30 12:52 | 43.58471 | 17.80757 | 20549 ft | 391 kts | 196° |
| 2026-04-30 12:52 | 43.55811 | 17.80025 | 20082 ft | 389 kts | 195° |
| 2026-04-30 12:53 | 43.53197 | 17.79312 | 19652 ft | 386 kts | 194° |
| 2026-04-30 12:53 | 43.50567 | 17.78598 | 19195 ft | 384 kts | 196° |
| 2026-04-30 12:53 | 43.47942 | 17.77884 | 18761 ft | 383 kts | 193° |
| 2026-04-30 12:53 | 43.45329 | 17.77176 | 18260 ft | 384 kts | 194° |
| 2026-04-30 12:54 | 43.42693 | 17.76466 | 17752 ft | 385 kts | 193° |
| 2026-04-30 12:54 | 43.40075 | 17.75763 | 17293 ft | 382 kts | 195° |
| 2026-04-30 12:54 | 43.37479 | 17.75066 | 16846 ft | 378 kts | 193° |
| 2026-04-30 12:54 | 43.34906 | 17.74380 | 16374 ft | 376 kts | 193° |
| 2026-04-30 12:55 | 43.32349 | 17.73700 | 15948 ft | 372 kts | 192° |
| 2026-04-30 12:55 | 43.29810 | 17.73022 | 15502 ft | 370 kts | 192° |
| 2026-04-30 12:55 | 43.27323 | 17.72357 | 15087 ft | 368 kts | 192° |
| 2026-04-30 12:55 | 43.24812 | 17.71685 | 14653 ft | 366 kts | 192° |
| 2026-04-30 12:56 | 43.22315 | 17.71018 | 14222 ft | 364 kts | 191° |
| 2026-04-30 12:56 | 43.19832 | 17.70356 | 13772 ft | 363 kts | 191° |
| 2026-04-30 12:56 | 43.17357 | 17.69697 | 13311 ft | 361 kts | 191° |
| 2026-04-30 12:56 | 43.14900 | 17.69043 | 12854 ft | 359 kts | 191° |
| 2026-04-30 12:57 | 43.12448 | 17.68390 | 12447 ft | 356 kts | 191° |
| 2026-04-30 12:57 | 43.10057 | 17.67754 | 12024 ft | 355 kts | 191° |
| 2026-04-30 12:57 | 43.07614 | 17.67107 | 11613 ft | 352 kts | 191° |
| 2026-04-30 12:57 | 43.05247 | 17.66474 | 11196 ft | 350 kts | 192° |
| 2026-04-30 12:58 | 43.02987 | 17.65319 | 10774 ft | 346 kts | 214° |
| 2026-04-30 12:58 | 43.01009 | 17.63533 | 10584 ft | 336 kts | 217° |
| 2026-04-30 12:58 | 42.99079 | 17.61788 | 10336 ft | 330 kts | 216° |
| 2026-04-30 12:58 | 42.97172 | 17.60114 | 10175 ft | 322 kts | 214° |
| 2026-04-30 12:59 | 42.95303 | 17.58491 | 10041 ft | 313 kts | 216° |
| 2026-04-30 12:59 | 42.93482 | 17.56949 | 9890 ft | 305 kts | 210° |
| 2026-04-30 12:59 | 42.91460 | 17.56193 | 9720 ft | 302 kts | 181° |
| 2026-04-30 12:59 | 42.89418 | 17.56699 | 9369 ft | 301 kts | 155° |
| 2026-04-30 13:00 | 42.87679 | 17.58217 | 9069 ft | 295 kts | 133° |
| 2026-04-30 13:00 | 42.86254 | 17.60156 | 8787 ft | 291 kts | 131° |
| 2026-04-30 13:00 | 42.84862 | 17.62135 | 8489 ft | 287 kts | 130° |
| 2026-04-30 13:00 | 42.83486 | 17.64092 | 8241 ft | 284 kts | 131° |
| 2026-04-30 13:01 | 42.82115 | 17.66024 | 7978 ft | 283 kts | 131° |
| 2026-04-30 13:01 | 42.80746 | 17.67939 | 7694 ft | 281 kts | 131° |
| 2026-04-30 13:01 | 42.79396 | 17.69816 | 7431 ft | 278 kts | 131° |
| 2026-04-30 13:01 | 42.78044 | 17.71691 | 7164 ft | 276 kts | 130° |
| 2026-04-30 13:02 | 42.76890 | 17.73724 | 6881 ft | 269 kts | 115° |
| 2026-04-30 13:02 | 42.76055 | 17.75983 | 6602 ft | 266 kts | 113° |
| 2026-04-30 13:02 | 42.75218 | 17.78235 | 6306 ft | 266 kts | 114° |
| 2026-04-30 13:02 | 42.74370 | 17.80460 | 6011 ft | 264 kts | 115° |
| 2026-04-30 13:03 | 42.73518 | 17.82658 | 5732 ft | 261 kts | 115° |
| 2026-04-30 13:03 | 42.72670 | 17.84827 | 5476 ft | 259 kts | 114° |
| 2026-04-30 13:03 | 42.71833 | 17.86976 | 5210 ft | 256 kts | 114° |
| 2026-04-30 13:03 | 42.71001 | 17.89101 | 4955 ft | 253 kts | 114° |
| 2026-04-30 13:04 | 42.70187 | 17.91181 | 4696 ft | 251 kts | 115° |
| 2026-04-30 13:04 | 42.69370 | 17.93268 | 4461 ft | 249 kts | 114° |
| 2026-04-30 13:04 | 42.68559 | 17.95337 | 4194 ft | 246 kts | 115° |
| 2026-04-30 13:04 | 42.67759 | 17.97362 | 3999 ft | 241 kts | 114° |
| 2026-04-30 13:05 | 42.66977 | 17.99350 | 3872 ft | 234 kts | 114° |
| 2026-04-30 13:05 | 42.66225 | 18.01268 | 3818 ft | 225 kts | 114° |
| 2026-04-30 13:05 | 42.65515 | 18.03070 | 3802 ft | 207 kts | 114° |
| 2026-04-30 13:06 | 42.64284 | 18.06285 | 3563 ft | 183 kts | 112° |
| 2026-04-30 13:06 | 42.63699 | 18.07790 | 3324 ft | 181 kts | 113° |
| 2026-04-30 13:06 | 42.63104 | 18.09285 | 3076 ft | 178 kts | 114° |
| 2026-04-30 13:06 | 42.62520 | 18.10749 | 2846 ft | 175 kts | 114° |
| 2026-04-30 13:07 | 42.61946 | 18.12190 | 2610 ft | 170 kts | 114° |
| 2026-04-30 13:07 | 42.61393 | 18.13577 | 2391 ft | 163 kts | 113° |
| 2026-04-30 13:07 | 42.60874 | 18.14883 | 2204 ft | 150 kts | 112° |
| 2026-04-30 13:07 | 42.60380 | 18.16128 | 2002 ft | 152 kts | 112° |
| 2026-04-30 13:08 | 42.59889 | 18.17365 | 1795 ft | 149 kts | 112° |
| 2026-04-30 13:08 | 42.59406 | 18.18578 | 1597 ft | 144 kts | 112° |
| 2026-04-30 13:08 | 42.58931 | 18.19777 | 1416 ft | 147 kts | 112° |
| 2026-04-30 13:08 | 42.58443 | 18.21003 | 1216 ft | 147 kts | 110° |
| 2026-04-30 13:09 | 42.57966 | 18.22234 | 1043 ft | 150 kts | 111° |
| 2026-04-30 13:09 | 42.57457 | 18.23501 | 803 ft | 155 kts | 109° |
| 2026-04-30 13:09 | 42.56912 | 18.24763 | 586 ft | 155 kts | 109° |
| 2026-04-30 13:09 | 42.56400 | 18.26087 | 1426 ft | 165 kts | 115° |
| 2026-04-30 13:10 | 42.55508 | 18.27171 | 2541 ft | 190 kts | 156° |
| 2026-04-30 13:10 | 42.54135 | 18.27284 | 3668 ft | 202 kts | 184° |
| 2026-04-30 13:10 | 42.52703 | 18.27016 | 4507 ft | 210 kts | 187° |
| 2026-04-30 13:10 | 42.51316 | 18.26768 | 5643 ft | 197 kts | 187° |
| 2026-04-30 13:11 | 42.49904 | 18.26581 | 6240 ft | 212 kts | 186° |
| 2026-04-30 13:11 | 42.48396 | 18.26484 | 6744 ft | 221 kts | 183° |
| 2026-04-30 13:11 | 42.46893 | 18.25887 | 6977 ft | 239 kts | 220° |
| 2026-04-30 13:11 | 42.45902 | 18.23997 | 7009 ft | 263 kts | 257° |
| 2026-04-30 13:12 | 42.45906 | 18.21552 | 7002 ft | 267 kts | 291° |
| 2026-04-30 13:12 | 42.46936 | 18.19525 | 7011 ft | 263 kts | 321° |
| 2026-04-30 13:12 | 42.48347 | 18.17949 | 7002 ft | 263 kts | 321° |
| 2026-04-30 13:13 | 42.50800 | 18.14293 | 6827 ft | 269 kts | 301° |
| 2026-04-30 13:13 | 42.51653 | 18.12015 | 6602 ft | 271 kts | 298° |
| 2026-04-30 13:13 | 42.53276 | 18.07442 | 6091 ft | 265 kts | 298° |
| 2026-04-30 13:14 | 42.54070 | 18.05188 | 6031 ft | 266 kts | 298° |
| 2026-04-30 13:14 | 42.54858 | 18.02951 | 6006 ft | 265 kts | 298° |
| 2026-04-30 13:14 | 42.56440 | 17.98455 | 5998 ft | 265 kts | 298° |
| 2026-04-30 13:15 | 42.57233 | 17.96202 | 5993 ft | 264 kts | 298° |
| 2026-04-30 13:15 | 42.59203 | 17.92298 | 5848 ft | 242 kts | 336° |
| 2026-04-30 13:15 | 42.60759 | 17.91626 | 5797 ft | 230 kts | 345° |
| 2026-04-30 13:16 | 42.62275 | 17.91005 | 5551 ft | 229 kts | 345° |
| 2026-04-30 13:16 | 42.63795 | 17.90335 | 5288 ft | 229 kts | 345° |
| 2026-04-30 13:16 | 42.65309 | 17.89709 | 5076 ft | 226 kts | 355° |
| 2026-04-30 13:17 | 42.67693 | 17.90647 | 4730 ft | 218 kts | 43° |
| 2026-04-30 13:17 | 42.68679 | 17.92966 | 4467 ft | 219 kts | 78° |
| 2026-04-30 13:17 | 42.68185 | 17.96333 | 4137 ft | 223 kts | 115° |
| 2026-04-30 13:18 | 42.67475 | 17.98201 | 3937 ft | 222 kts | 112° |
| 2026-04-30 13:18 | 42.66029 | 18.01955 | 3803 ft | 227 kts | 115° |
| 2026-04-30 13:18 | 42.65280 | 18.03819 | 3791 ft | 220 kts | 115° |
| 2026-04-30 13:19 | 42.64569 | 18.05600 | 3650 ft | 211 kts | 114° |
| 2026-04-30 13:19 | 42.63881 | 18.07330 | 3402 ft | 206 kts | 114° |
| 2026-04-30 13:19 | 42.63207 | 18.09023 | 3131 ft | 200 kts | 114° |
| 2026-04-30 13:19 | 42.62556 | 18.10659 | 2854 ft | 194 kts | 114° |
| 2026-04-30 13:20 | 42.61929 | 18.12230 | 2593 ft | 184 kts | 112° |
| 2026-04-30 13:20 | 42.61343 | 18.13707 | 2366 ft | 172 kts | 114° |
| 2026-04-30 13:20 | 42.60791 | 18.15093 | 2151 ft | 162 kts | 113° |
| 2026-04-30 13:20 | 42.60278 | 18.16381 | 1979 ft | 148 kts | 112° |
| 2026-04-30 13:21 | 42.59776 | 18.17650 | 1756 ft | 154 kts | 113° |
| 2026-04-30 13:21 | 42.59283 | 18.18888 | 1537 ft | 149 kts | 112° |
| 2026-04-30 13:21 | 42.58797 | 18.20112 | 1363 ft | 147 kts | 112° |
| 2026-04-30 13:22 | 42.57808 | 18.22633 | 993 ft | 157 kts | 110° |
| 2026-04-30 13:22 | 42.57284 | 18.23943 | 686 ft | 157 kts | 109° |
| 2026-04-30 13:22 | 42.56427 | 18.26096 | 526 ft | 82 kts | 118° |
| 2026-04-30 13:23 | 42.56254 | 18.26532 | 525 ft | 32 kts | 118° |
| 2026-04-30 13:23 | 42.56118 | 18.26517 | 525 ft | 12 kts | 244° |
| 2026-04-30 13:24 | 42.56158 | 18.26293 | 522 ft | 13 kts | 300° |
| 2026-04-30 13:24 | 42.56207 | 18.26137 | 522 ft | 6 kts | 236° |
| 2026-04-30 13:25 | 42.56165 | 18.26102 | 520 ft | 0 kts | 207° |